Time;durP1;ratioP1;P1;durP2;ratioP2;P2;SDS_P1;SDS_P2;PMS_P1;PMS_P2;Temp;Humidity;BMP_temperature;BMP_pressure;BME280_temperature;BME280_humidity;BME280_pressure;Samples;Min_cycle;Max_cycle;Signal;HPM_P1;HPM_P2
2023/07/10 00:01:57;;;;;;;;;;;22.50;84.60;;;;;;5024014;28;19921;-77
2023/07/10 00:04:23;;;;;;;;;;;22.40;84.60;;;;;;5023775;28;20391;-77
2023/07/10 00:06:49;;;;;;;;;;;22.50;84.40;;;;;;5006194;28;20015;-78
2023/07/10 00:09:15;;;;;;;;;;;22.50;84.10;;;;;;5006900;28;19917;-78
2023/07/10 00:11:41;;;;;;;;;;;22.50;84.30;;;;;;5023701;28;19913;-78
2023/07/10 00:14:15;;;;;;;;;;;22.50;84.10;;;;;;5022986;28;19913;-78
2023/07/10 00:16:40;;;;;;;;;;;22.40;83.90;;;;;;5005058;28;19914;-77
2023/07/10 00:19:10;;;;;;;;;;;22.40;83.80;;;;;;5005879;28;19988;-79
2023/07/10 00:21:36;;;;;;;;;;;22.40;84.10;;;;;;5005400;28;19921;-78
2023/07/10 00:24:01;;;;;;;;;;;22.30;83.90;;;;;;5005112;28;19987;-78
2023/07/10 00:26:27;;;;;;;;;;;22.30;84.00;;;;;;5005597;28;20011;-78
2023/07/10 00:28:54;;;;;;;;;;;22.30;84.00;;;;;;5019908;28;19927;-80
2023/07/10 00:31:20;;;;;;;;;;;22.30;84.00;;;;;;5020974;28;19913;-81
2023/07/10 00:33:47;;;;;;;;;;;22.30;83.90;;;;;;5020216;28;19917;-81
2023/07/10 00:36:33;;;;;;;;;;;22.30;83.90;;;;;;5005235;28;19920;-79
2023/07/10 00:39:17;;;;;;;;;;;22.20;84.60;;;;;;5018726;28;19913;-78
2023/07/10 00:41:43;;;;;;;;;;;22.10;84.00;;;;;;5021982;28;19925;-79
2023/07/10 00:44:09;;;;;;;;;;;22.30;84.10;;;;;;5022121;28;19913;-79
2023/07/10 00:46:53;;;;;;;;;;;22.20;83.80;;;;;;5004877;28;20022;-78
2023/07/10 00:49:29;;;;;;;;;;;22.20;84.00;;;;;;5003532;28;20403;-78
2023/07/10 00:52:00;;;;;;;;;;;22.20;83.70;;;;;;5018989;28;20409;-78
2023/07/10 00:54:33;;;;;;;;;;;22.20;83.80;;;;;;5003123;28;20502;-78
2023/07/10 00:57:01;;;;;;;;;;;22.30;83.80;;;;;;5019343;28;20399;-78
2023/07/10 00:59:28;;;;;;;;;;;22.30;83.70;;;;;;5021251;28;19966;-78
2023/07/10 01:02:20;;;;;;;;;;;22.30;83.90;;;;;;5019929;28;19924;-79
2023/07/10 01:04:48;;;;;;;;;;;22.30;84.00;;;;;;5014417;28;19913;-79
2023/07/10 01:07:16;;;;;;;;;;;22.20;84.00;;;;;;5017530;28;19917;-80
2023/07/10 01:09:44;;;;;;;;;;;22.10;84.20;;;;;;5022487;28;19913;-79
2023/07/10 01:12:10;;;;;;;;;;;22.10;83.80;;;;;;5022813;28;19924;-80
2023/07/10 01:14:35;;;;;;;;;;;22.20;83.50;;;;;;5022915;28;19913;-79
2023/07/10 01:17:05;;;;;;;;;;;22.30;83.00;;;;;;5022378;28;19975;-79
2023/07/10 01:19:32;;;;;;;;;;;22.10;83.90;;;;;;5030676;28;19955;-80
2023/07/10 01:21:58;;;;;;;;;;;22.10;84.20;;;;;;5021489;28;19979;-80
2023/07/10 01:24:24;;;;;;;;;;;22.00;84.20;;;;;;5003749;28;19947;-80
2023/07/10 01:26:50;;;;;;;;;;;21.90;85.20;;;;;;5020442;28;19921;-81
2023/07/10 01:29:28;;;;;;;;;;;22.00;85.10;;;;;;5022440;28;19921;-80
2023/07/10 01:31:54;;;;;;;;;;;22.00;84.60;;;;;;5020099;28;20380;-80
2023/07/10 01:34:21;;;;;;;;;;;22.10;84.60;;;;;;5004670;28;19923;-79
2023/07/10 01:36:47;;;;;;;;;;;22.00;84.40;;;;;;5018915;28;19952;-79
2023/07/10 01:39:15;;;;;;;;;;;22.10;84.10;;;;;;5027489;28;20475;-78
2023/07/10 01:41:42;;;;;;;;;;;22.20;84.00;;;;;;5021961;28;19986;-80
2023/07/10 01:44:11;;;;;;;;;;;22.20;83.40;;;;;;5014313;28;19917;-78
2023/07/10 01:46:36;;;;;;;;;;;22.10;83.80;;;;;;5022189;28;19970;-79
2023/07/10 01:49:02;;;;;;;;;;;22.10;83.80;;;;;;5019967;28;20688;-77
2023/07/10 01:51:27;;;;;;;;;;;22.10;84.30;;;;;;5022533;28;19925;-78
2023/07/10 01:53:53;;;;;;;;;;;22.00;84.50;;;;;;5021493;28;20383;-79
2023/07/10 01:56:20;;;;;;;;;;;21.90;85.00;;;;;;5021710;28;19917;-78
2023/07/10 01:58:45;;;;;;;;;;;21.90;84.90;;;;;;5003645;28;19947;-80
2023/07/10 02:01:11;;;;;;;;;;;21.70;84.70;;;;;;5003717;28;19933;-79
2023/07/10 02:03:37;;;;;;;;;;;21.50;85.20;;;;;;5021219;28;19963;-78
2023/07/10 02:06:03;;;;;;;;;;;21.50;85.10;;;;;;5004052;28;20445;-79
2023/07/10 02:08:29;;;;;;;;;;;21.30;85.40;;;;;;5021685;28;19971;-79
2023/07/10 02:10:55;;;;;;;;;;;21.30;85.80;;;;;;5021831;28;19921;-79
2023/07/10 02:13:20;;;;;;;;;;;21.30;86.10;;;;;;5021464;28;19917;-78
2023/07/10 02:15:46;;;;;;;;;;;21.20;86.80;;;;;;5020712;28;20657;-79
2023/07/10 02:18:11;;;;;;;;;;;21.30;86.70;;;;;;5021469;28;20772;-79
2023/07/10 02:20:39;;;;;;;;;;;21.30;86.50;;;;;;5004131;28;19931;-77
2023/07/10 02:23:04;;;;;;;;;;;21.20;87.00;;;;;;5021922;28;20399;-79
2023/07/10 02:25:30;;;;;;;;;;;21.10;87.60;;;;;;5003979;28;19917;-77
2023/07/10 02:27:56;;;;;;;;;;;21.20;87.70;;;;;;5022147;28;19930;-78
2023/07/10 02:30:22;;;;;;;;;;;21.20;87.80;;;;;;5001759;28;20280;-79
2023/07/10 02:32:47;;;;;;;;;;;21.20;87.50;;;;;;5020780;28;19983;-79
2023/07/10 02:35:13;;;;;;;;;;;21.10;88.10;;;;;;5020251;28;19920;-80
2023/07/10 02:37:39;;;;;;;;;;;21.10;88.40;;;;;;5019682;28;20380;-78
2023/07/10 02:40:05;;;;;;;;;;;21.10;88.20;;;;;;5025442;28;19919;-79
2023/07/10 02:42:30;;;;;;;;;;;21.00;89.00;;;;;;5025220;28;20586;-77
2023/07/10 02:44:56;;;;;;;;;;;21.00;88.50;;;;;;5025495;28;19925;-79
2023/07/10 02:47:21;;;;;;;;;;;20.90;88.90;;;;;;5025288;28;19923;-79
2023/07/10 02:49:47;;;;;;;;;;;20.90;89.30;;;;;;5007387;28;19969;-79
2023/07/10 02:52:12;;;;;;;;;;;21.00;89.30;;;;;;5004110;28;19963;-80
2023/07/10 02:54:38;;;;;;;;;;;21.00;89.00;;;;;;5020454;28;19971;-79
2023/07/10 02:57:03;;;;;;;;;;;21.00;89.00;;;;;;5020644;28;20292;-80
2023/07/10 02:59:29;;;;;;;;;;;21.00;89.10;;;;;;5004853;28;19918;-81
2023/07/10 03:01:55;;;;;;;;;;;20.90;89.90;;;;;;5003296;28;19921;-80
2023/07/10 03:04:20;;;;;;;;;;;20.70;90.00;;;;;;5004770;28;19913;-82
2023/07/10 03:06:47;;;;;;;;;;;20.80;90.10;;;;;;5005302;28;19918;-79
2023/07/10 03:09:13;;;;;;;;;;;20.70;90.10;;;;;;5004842;28;19967;-80
2023/07/10 03:11:39;;;;;;;;;;;20.70;90.20;;;;;;5005668;28;19909;-80
2023/07/10 03:14:05;;;;;;;;;;;20.80;90.10;;;;;;5002965;28;20376;-80
2023/07/10 03:16:30;;;;;;;;;;;20.80;90.00;;;;;;5002866;28;20036;-78
2023/07/10 03:18:56;;;;;;;;;;;20.80;90.30;;;;;;5004336;28;19972;-80
2023/07/10 03:21:21;;;;;;;;;;;20.70;90.40;;;;;;5005208;28;19922;-79
2023/07/10 03:23:48;;;;;;;;;;;20.70;90.40;;;;;;5004244;28;19920;-79
2023/07/10 03:26:13;;;;;;;;;;;20.80;90.50;;;;;;5005190;28;20372;-80
2023/07/10 03:28:39;;;;;;;;;;;20.80;90.20;;;;;;5020248;28;19909;-80
2023/07/10 03:31:05;;;;;;;;;;;20.70;90.30;;;;;;5020334;28;20725;-79
2023/07/10 03:33:30;;;;;;;;;;;20.70;90.50;;;;;;5004822;28;19956;-79
2023/07/10 03:36:14;;;;;;;;;;;20.70;90.50;;;;;;5020592;28;20029;-79
2023/07/10 03:38:41;;;;;;;;;;;20.60;90.60;;;;;;5002649;28;19973;-79
2023/07/10 03:41:07;;;;;;;;;;;20.50;90.80;;;;;;5004750;28;19936;-78
2023/07/10 03:43:32;;;;;;;;;;;20.50;90.80;;;;;;5004530;28;19918;-79
2023/07/10 03:45:58;;;;;;;;;;;20.50;91.00;;;;;;5002789;28;19918;-79
2023/07/10 03:48:24;;;;;;;;;;;20.40;91.00;;;;;;5003264;28;19940;-80
2023/07/10 03:50:50;;;;;;;;;;;20.50;90.90;;;;;;5014783;28;19929;-82
2023/07/10 03:53:15;;;;;;;;;;;20.40;91.10;;;;;;5002687;28;19918;-80
2023/07/10 03:55:51;;;;;;;;;;;20.30;91.20;;;;;;5002541;28;19914;-81
2023/07/10 03:58:21;;;;;;;;;;;20.40;91.30;;;;;;5004837;28;19921;-80
2023/07/10 04:00:47;;;;;;;;;;;20.30;91.30;;;;;;5002147;28;19961;-81
2023/07/10 04:03:13;;;;;;;;;;;20.40;91.40;;;;;;5003373;28;20426;-80
2023/07/10 04:05:38;;;;;;;;;;;20.40;91.40;;;;;;5004874;28;19940;-79
2023/07/10 04:08:04;;;;;;;;;;;20.30;91.50;;;;;;5004924;28;20463;-80
2023/07/10 04:10:29;;;;;;;;;;;20.30;91.40;;;;;;5003941;28;19918;-79
2023/07/10 04:12:55;;;;;;;;;;;20.20;91.50;;;;;;5000079;28;19928;-78
2023/07/10 04:15:20;;;;;;;;;;;20.30;91.50;;;;;;5003531;28;19928;-79
2023/07/10 04:17:46;;;;;;;;;;;20.30;91.40;;;;;;5002624;28;19917;-78
2023/07/10 04:20:11;;;;;;;;;;;20.30;91.50;;;;;;5004287;28;19960;-80
2023/07/10 04:22:37;;;;;;;;;;;20.30;91.40;;;;;;5004039;28;19949;-79
2023/07/10 04:25:05;;;;;;;;;;;20.40;91.30;;;;;;5002388;28;19917;-77
2023/07/10 04:27:31;;;;;;;;;;;20.40;90.90;;;;;;5003449;28;20466;-77
2023/07/10 04:29:57;;;;;;;;;;;20.50;90.80;;;;;;5007661;28;19979;-77
2023/07/10 04:32:23;;;;;;;;;;;20.60;90.70;;;;;;5002143;28;20007;-78
2023/07/10 04:34:48;;;;;;;;;;;20.60;90.80;;;;;;5003141;28;20658;-79
2023/07/10 04:37:14;;;;;;;;;;;20.60;90.80;;;;;;5016610;28;20731;-78
2023/07/10 04:39:39;;;;;;;;;;;20.80;90.70;;;;;;5003719;28;19921;-79
2023/07/10 04:42:05;;;;;;;;;;;20.90;90.10;;;;;;5003402;28;19992;-78
2023/07/10 04:44:31;;;;;;;;;;;21.10;90.00;;;;;;5013231;28;19917;-79
2023/07/10 04:46:56;;;;;;;;;;;21.20;89.10;;;;;;5010220;28;19917;-80
2023/07/10 04:49:22;;;;;;;;;;;21.20;89.20;;;;;;5009652;28;19931;-78
2023/07/10 04:51:47;;;;;;;;;;;20.80;90.50;;;;;;5006741;28;19952;-81
2023/07/10 04:54:13;;;;;;;;;;;21.00;90.30;;;;;;5003273;28;19920;-79
2023/07/10 04:56:38;;;;;;;;;;;21.30;89.80;;;;;;5007408;28;19920;-80
2023/07/10 04:59:04;;;;;;;;;;;21.20;90.50;;;;;;5002488;28;19925;-81
2023/07/10 05:01:32;;;;;;;;;;;21.20;90.50;;;;;;5002538;28;20380;-79
2023/07/10 05:03:58;;;;;;;;;;;21.40;90.50;;;;;;5003198;28;19940;-80
2023/07/10 05:06:24;;;;;;;;;;;21.50;90.50;;;;;;5003434;28;20364;-79
2023/07/10 05:08:54;;;;;;;;;;;21.50;90.60;;;;;;5018285;28;19917;-80
2023/07/10 05:11:20;;;;;;;;;;;21.60;90.60;;;;;;5001809;28;19913;-77
2023/07/10 05:13:46;;;;;;;;;;;21.60;90.50;;;;;;5003198;28;19918;-79
2023/07/10 05:16:13;;;;;;;;;;;21.90;90.10;;;;;;5004314;28;19967;-80
2023/07/10 05:18:38;;;;;;;;;;;22.20;88.40;;;;;;5003605;28;21076;-80
2023/07/10 05:21:04;;;;;;;;;;;22.70;86.50;;;;;;5021757;28;20538;-78
2023/07/10 05:23:30;;;;;;;;;;;22.70;86.30;;;;;;5004626;28;19918;-80
2023/07/10 05:25:57;;;;;;;;;;;22.70;86.60;;;;;;5009880;28;20592;-78
2023/07/10 05:28:23;;;;;;;;;;;23.00;84.60;;;;;;5010161;28;19918;-80
2023/07/10 05:30:48;;;;;;;;;;;22.80;86.10;;;;;;5003566;28;19924;-82
2023/07/10 05:33:14;;;;;;;;;;;23.10;85.00;;;;;;5002105;28;20123;-80
2023/07/10 05:35:47;;;;;;;;;;;23.60;83.80;;;;;;5001687;28;19917;-81
2023/07/10 05:38:13;;;;;;;;;;;23.90;81.30;;;;;;5008169;28;19952;-84
2023/07/10 05:40:42;;;;;;;;;;;24.10;80.80;;;;;;5016140;28;19940;-83
2023/07/10 05:43:07;;;;;;;;;;;24.30;80.20;;;;;;4999419;28;20027;-84
2023/07/10 05:45:33;;;;;;;;;;;24.70;78.70;;;;;;5005082;28;20000;-83
2023/07/10 05:47:58;;;;;;;;;;;24.80;77.50;;;;;;5002485;28;19921;-83
2023/07/10 05:50:24;;;;;;;;;;;25.10;76.40;;;;;;5021880;28;19929;-83
2023/07/10 05:52:49;;;;;;;;;;;25.40;75.30;;;;;;5022281;28;19913;-80
2023/07/10 05:55:15;;;;;;;;;;;25.70;74.00;;;;;;5025731;28;19932;-81
2023/07/10 05:57:40;;;;;;;;;;;26.20;72.60;;;;;;5025965;28;19924;-78
2023/07/10 06:00:06;;;;;;;;;;;26.30;71.40;;;;;;5032027;28;20402;-79
2023/07/10 06:02:32;;;;;;;;;;;26.40;73.10;;;;;;5005344;28;19921;-79
2023/07/10 06:04:57;;;;;;;;;;;26.40;71.70;;;;;;5021808;28;20582;-79
2023/07/10 06:07:23;;;;;;;;;;;26.90;71.50;;;;;;5026454;28;20455;-78
2023/07/10 06:09:48;;;;;;;;;;;26.70;70.60;;;;;;5025679;28;19918;-78
2023/07/10 06:12:14;;;;;;;;;;;26.50;70.70;;;;;;5030381;28;19966;-78
2023/07/10 06:14:39;;;;;;;;;;;26.80;70.50;;;;;;5024109;28;20468;-79
2023/07/10 06:17:05;;;;;;;;;;;26.70;70.30;;;;;;5025327;28;19959;-78
2023/07/10 06:19:30;;;;;;;;;;;27.00;69.60;;;;;;5012376;28;19913;-78
2023/07/10 06:22:09;;;;;;;;;;;26.90;71.10;;;;;;5026942;28;19939;-78
2023/07/10 06:24:35;;;;;;;;;;;26.80;69.90;;;;;;5013736;28;20383;-78
2023/07/10 06:27:02;;;;;;;;;;;26.80;69.30;;;;;;5029999;28;19975;-80
2023/07/10 06:29:27;;;;;;;;;;;27.10;68.80;;;;;;5028379;28;19912;-81
2023/07/10 06:31:53;;;;;;;;;;;27.20;68.40;;;;;;5027432;28;19970;-79
2023/07/10 06:34:18;;;;;;;;;;;27.30;67.80;;;;;;5023767;28;20398;-79
2023/07/10 06:36:44;;;;;;;;;;;28.00;67.40;;;;;;5025413;28;19949;-81
2023/07/10 06:39:09;;;;;;;;;;;28.40;65.80;;;;;;5024946;28;19913;-79
2023/07/10 06:41:35;;;;;;;;;;;28.70;65.00;;;;;;5007389;28;20380;-80
2023/07/10 06:44:00;;;;;;;;;;;29.70;63.50;;;;;;5024173;28;20201;-80
2023/07/10 06:46:26;;;;;;;;;;;29.40;61.80;;;;;;5023303;28;20315;-80
2023/07/10 06:48:52;;;;;;;;;;;29.70;61.50;;;;;;5005687;28;19913;-80
2023/07/10 06:51:17;;;;;;;;;;;30.60;60.90;;;;;;5007273;28;20396;-80
2023/07/10 06:53:43;;;;;;;;;;;30.10;61.00;;;;;;5022194;28;20396;-80
2023/07/10 06:56:09;;;;;;;;;;;30.50;59.80;;;;;;5021932;28;19913;-80
2023/07/10 06:58:34;;;;;;;;;;;30.80;59.00;;;;;;5024171;28;19917;-80
2023/07/10 07:01:00;;;;;;;;;;;30.90;58.60;;;;;;5006241;28;19917;-79
2023/07/10 07:03:26;;;;;;;;;;;30.60;59.00;;;;;;5024299;28;19921;-80
2023/07/10 07:05:52;;;;;;;;;;;31.10;59.40;;;;;;5020264;28;19913;-80
2023/07/10 07:08:18;;;;;;;;;;;30.50;58.70;;;;;;5020812;28;19959;-81
2023/07/10 07:10:44;;;;;;;;;;;31.10;57.40;;;;;;5019113;28;19917;-80
2023/07/10 07:13:10;;;;;;;;;;;32.10;57.00;;;;;;5005464;28;20463;-80
2023/07/10 07:15:35;;;;;;;;;;;33.00;57.20;;;;;;5017171;28;20152;-81
2023/07/10 07:18:03;;;;;;;;;;;33.00;55.10;;;;;;5023265;28;19913;-81
2023/07/10 07:20:29;;;;;;;;;;;32.60;54.50;;;;;;5023897;28;19914;-81
2023/07/10 07:22:54;;;;;;;;;;;33.30;53.80;;;;;;5022777;28;19917;-81
2023/07/10 07:25:20;;;;;;;;;;;33.50;53.50;;;;;;5006171;28;19920;-81
2023/07/10 07:27:45;;;;;;;;;;;33.00;55.60;;;;;;5019886;28;19913;-80
2023/07/10 07:30:11;;;;;;;;;;;32.90;54.50;;;;;;5023825;28;19921;-80
2023/07/10 07:32:37;;;;;;;;;;;32.80;55.70;;;;;;5023895;28;19920;-81
2023/07/10 07:35:02;;;;;;;;;;;32.50;55.80;;;;;;5021912;28;19913;-80
2023/07/10 07:37:30;;;;;;;;;;;33.20;54.10;;;;;;5019492;28;20178;-80
2023/07/10 07:39:58;;;;;;;;;;;32.60;56.00;;;;;;5016214;28;19918;-81
2023/07/10 07:42:24;;;;;;;;;;;33.50;55.10;;;;;;5023305;28;20654;-80
2023/07/10 07:44:49;;;;;;;;;;;33.90;54.70;;;;;;5004987;28;20447;-83
2023/07/10 07:47:15;;;;;;;;;;;33.90;53.50;;;;;;5005876;28;20443;-82
2023/07/10 07:49:41;;;;;;;;;;;35.10;53.00;;;;;;5022437;28;20035;-81
2023/07/10 07:52:06;;;;;;;;;;;34.10;51.20;;;;;;5023385;28;20016;-82
2023/07/10 07:54:32;;;;;;;;;;;34.10;52.50;;;;;;5023474;28;20378;-82
2023/07/10 07:56:57;;;;;;;;;;;34.20;51.00;;;;;;5022482;28;19953;-81
2023/07/10 07:59:23;;;;;;;;;;;34.90;50.20;;;;;;5023771;28;19913;-81
2023/07/10 08:01:51;;;;;;;;;;;35.30;50.80;;;;;;5022824;28;20339;-81
2023/07/10 08:04:18;;;;;;;;;;;34.70;51.00;;;;;;5023596;28;19940;-82
2023/07/10 08:06:43;;;;;;;;;;;36.60;49.20;;;;;;5024115;28;19929;-81
2023/07/10 08:09:09;;;;;;;;;;;35.80;50.20;;;;;;5022179;28;20187;-81
2023/07/10 08:11:34;;;;;;;;;;;35.80;50.70;;;;;;5023456;28;20515;-81
2023/07/10 08:14:00;;;;;;;;;;;36.10;49.00;;;;;;5023655;28;19913;-81
2023/07/10 08:16:26;;;;;;;;;;;36.90;50.70;;;;;;5023769;28;19936;-81
2023/07/10 08:18:51;;;;;;;;;;;36.50;48.50;;;;;;5004943;28;19961;-81
2023/07/10 08:21:18;;;;;;;;;;;36.90;48.50;;;;;;5023697;28;20571;-79
2023/07/10 08:23:43;;;;;;;;;;;36.30;47.40;;;;;;5022370;28;19924;-80
2023/07/10 08:26:09;;;;;;;;;;;37.80;47.10;;;;;;5023380;28;19917;-80
2023/07/10 08:28:35;;;;;;;;;;;37.30;49.10;;;;;;5022764;28;20715;-81
2023/07/10 08:31:00;;;;;;;;;;;38.20;47.60;;;;;;5021346;28;19929;-80
2023/07/10 08:33:26;;;;;;;;;;;38.10;46.30;;;;;;5004407;28;19917;-80
2023/07/10 08:35:52;;;;;;;;;;;38.40;47.10;;;;;;5004633;28;19917;-81
2023/07/10 08:38:18;;;;;;;;;;;38.20;47.10;;;;;;5022769;28;19923;-81
2023/07/10 08:40:43;;;;;;;;;;;37.90;47.70;;;;;;5023237;28;19932;-80
2023/07/10 08:43:17;;;;;;;;;;;37.50;47.60;;;;;;5022993;28;19917;-82
2023/07/10 08:45:45;;;;;;;;;;;37.40;48.00;;;;;;5019848;28;19917;-83
2023/07/10 08:48:22;;;;;;;;;;;38.70;45.80;;;;;;5017090;28;19917;-81
2023/07/10 08:50:48;;;;;;;;;;;38.30;47.70;;;;;;5021997;28;20480;-80
2023/07/10 08:53:18;;;;;;;;;;;39.10;44.40;;;;;;5002709;28;19913;-80
2023/07/10 08:55:47;;;;;;;;;;;39.20;44.70;;;;;;5013655;28;19961;-80
2023/07/10 08:58:28;;;;;;;;;;;39.30;43.90;;;;;;5003311;28;20592;-81
2023/07/10 09:00:56;;;;;;;;;;;39.70;43.80;;;;;;5016171;28;20416;-81
2023/07/10 09:03:40;;;;;;;;;;;40.40;44.80;;;;;;5013158;28;19924;-81
2023/07/10 09:06:10;;;;;;;;;;;40.70;45.00;;;;;;5020676;28;19924;-80
2023/07/10 09:08:35;;;;;;;;;;;40.90;42.30;;;;;;5019131;28;19923;-82
2023/07/10 09:11:02;;;;;;;;;;;41.50;41.30;;;;;;5022182;28;19913;-80
2023/07/10 09:13:30;;;;;;;;;;;42.20;41.20;;;;;;5018900;28;20489;-82
2023/07/10 09:15:57;;;;;;;;;;;41.00;41.30;;;;;;5021402;28;19924;-80
2023/07/10 09:18:25;;;;;;;;;;;40.60;42.80;;;;;;5015933;28;20024;-83
2023/07/10 09:20:57;;;;;;;;;;;40.50;43.80;;;;;;5017332;28;19927;-81
2023/07/10 09:23:24;;;;;;;;;;;41.90;41.30;;;;;;5017796;28;19913;-81
2023/07/10 09:25:54;;;;;;;;;;;41.60;42.30;;;;;;5019914;28;19921;-80
2023/07/10 09:28:21;;;;;;;;;;;41.70;44.10;;;;;;4997645;28;19917;-82
2023/07/10 09:30:49;;;;;;;;;;;41.80;41.40;;;;;;5019933;28;20012;-81
2023/07/10 09:33:15;;;;;;;;;;;42.40;40.40;;;;;;5017266;28;19978;-83
2023/07/10 09:35:42;;;;;;;;;;;42.20;40.90;;;;;;5018373;28;19917;-81
2023/07/10 09:38:12;;;;;;;;;;;42.40;40.50;;;;;;5020225;28;19913;-82
2023/07/10 09:40:37;;;;;;;;;;;43.60;39.50;;;;;;5019802;28;19928;-81
2023/07/10 09:43:04;;;;;;;;;;;44.10;40.30;;;;;;5019116;28;19917;-81
2023/07/10 09:45:38;;;;;;;;;;;44.10;39.50;;;;;;5017593;28;19956;-81
2023/07/10 09:48:11;;;;;;;;;;;44.00;37.30;;;;;;5018682;28;20599;-81
2023/07/10 09:50:36;;;;;;;;;;;42.30;38.10;;;;;;5015273;28;20673;-82
2023/07/10 09:53:02;;;;;;;;;;;42.90;38.60;;;;;;5016733;28;19917;-82
2023/07/10 09:55:27;;;;;;;;;;;42.40;38.30;;;;;;5021327;28;19975;-82
2023/07/10 09:58:01;;;;;;;;;;;43.30;37.40;;;;;;5021754;28;19920;-82
2023/07/10 10:00:27;;;;;;;;;;;44.00;36.80;;;;;;5013734;28;20593;-81
2023/07/10 10:03:13;;;;;;;;;;;43.90;37.90;;;;;;4999149;28;20359;-82
2023/07/10 10:05:40;;;;;;;;;;;44.30;37.20;;;;;;5012392;28;19967;-80
2023/07/10 10:08:15;;;;;;;;;;;42.70;37.40;;;;;;5017869;28;19926;-82
2023/07/10 10:10:41;;;;;;;;;;;43.00;39.00;;;;;;5016312;28;20004;-81
2023/07/10 10:13:19;;;;;;;;;;;43.20;38.30;;;;;;5019338;28;19923;-81
2023/07/10 10:15:53;;;;;;;;;;;43.70;38.80;;;;;;5015118;28;20335;-80
2023/07/10 10:18:25;;;;;;;;;;;43.70;40.00;;;;;;5020610;28;19987;-83
2023/07/10 10:20:51;;;;;;;;;;;44.30;39.00;;;;;;5019560;28;20639;-81
2023/07/10 10:23:29;;;;;;;;;;;44.50;39.30;;;;;;5018522;28;20006;-81
2023/07/10 10:26:00;;;;;;;;;;;44.10;38.80;;;;;;5015817;28;19913;-81
2023/07/10 10:28:32;;;;;;;;;;;44.10;40.60;;;;;;5017312;28;20309;-82
2023/07/10 10:31:01;;;;;;;;;;;43.90;40.10;;;;;;5000066;28;20104;-82
2023/07/10 10:33:27;;;;;;;;;;;43.90;39.60;;;;;;5020993;28;19944;-80
2023/07/10 10:35:57;;;;;;;;;;;44.70;42.10;;;;;;5017223;28;19920;-81
2023/07/10 10:38:22;;;;;;;;;;;43.20;38.90;;;;;;5023590;28;19920;-80
2023/07/10 10:41:07;;;;;;;;;;;41.90;40.20;;;;;;5022518;28;19917;-80
2023/07/10 10:43:36;;;;;;;;;;;42.90;37.70;;;;;;5021000;28;19924;-81
2023/07/10 10:46:20;;;;;;;;;;;42.60;41.70;;;;;;5020639;28;19919;-80
2023/07/10 10:48:52;;;;;;;;;;;43.50;40.70;;;;;;5022801;28;19971;-82
2023/07/10 10:51:24;;;;;;;;;;;42.10;40.10;;;;;;5012039;28;19974;-81
2023/07/10 10:54:03;;;;;;;;;;;39.80;42.10;;;;;;5017030;28;19920;-81
2023/07/10 10:56:34;;;;;;;;;;;37.40;45.90;;;;;;5021076;28;20393;-80
2023/07/10 10:59:15;;;;;;;;;;;36.30;48.50;;;;;;5024175;28;19920;-79
2023/07/10 11:01:40;;;;;;;;;;;36.00;48.90;;;;;;5019675;28;19924;-80
2023/07/10 11:04:21;;;;;;;;;;;36.90;49.20;;;;;;5024842;28;19983;-81
2023/07/10 11:06:46;;;;;;;;;;;35.60;46.50;;;;;;5024822;28;19956;-80
2023/07/10 11:09:18;;;;;;;;;;;35.00;49.80;;;;;;5024748;28;20091;-81
2023/07/10 11:11:44;;;;;;;;;;;35.30;50.40;;;;;;5007217;28;19917;-80
2023/07/10 11:14:11;;;;;;;;;;;35.40;52.20;;;;;;5018114;28;19952;-79
2023/07/10 11:16:37;;;;;;;;;;;35.40;51.70;;;;;;5025332;28;19921;-81
2023/07/10 11:19:03;;;;;;;;;;;35.30;51.60;;;;;;5024485;28;19920;-81
2023/07/10 11:21:30;;;;;;;;;;;35.40;51.20;;;;;;5023823;28;19982;-79
2023/07/10 11:23:55;;;;;;;;;;;35.30;52.10;;;;;;5023126;28;20517;-82
2023/07/10 11:26:23;;;;;;;;;;;35.00;50.50;;;;;;5007184;28;19917;-81
2023/07/10 11:28:51;;;;;;;;;;;34.00;55.50;;;;;;5025178;28;19987;-80
2023/07/10 11:31:16;;;;;;;;;;;33.60;56.90;;;;;;5022095;28;19951;-80
2023/07/10 11:33:43;;;;;;;;;;;33.90;53.20;;;;;;5024495;28;20439;-80
2023/07/10 11:36:34;;;;;;;;;;;34.20;56.60;;;;;;5025181;28;19978;-81
2023/07/10 11:39:05;;;;;;;;;;;34.10;57.60;;;;;;5026399;28;19913;-80
2023/07/10 11:41:40;;;;;;;;;;;34.00;56.60;;;;;;5025191;28;19999;-82
2023/07/10 11:44:24;;;;;;;;;;;33.50;56.30;;;;;;5024504;28;19924;-81
2023/07/10 11:47:02;;;;;;;;;;;33.60;55.00;;;;;;5023549;28;19924;-80
2023/07/10 11:49:43;;;;;;;;;;;33.50;55.50;;;;;;5019278;28;20797;-82
2023/07/10 11:52:14;;;;;;;;;;;33.70;56.60;;;;;;5004880;28;19914;-80
2023/07/10 11:54:41;;;;;;;;;;;33.20;58.60;;;;;;5002820;28;19953;-81
2023/07/10 11:57:06;;;;;;;;;;;33.10;58.80;;;;;;5004906;28;19972;-80
2023/07/10 11:59:34;;;;;;;;;;;33.20;58.20;;;;;;5004514;28;19928;-80
2023/07/10 12:01:59;;;;;;;;;;;33.00;59.40;;;;;;4997647;28;19959;-81
2023/07/10 12:04:26;;;;;;;;;;;33.10;57.50;;;;;;5004238;28;19914;-80
2023/07/10 12:06:52;;;;;;;;;;;33.20;57.90;;;;;;5004635;28;19920;-81
2023/07/10 12:09:17;;;;;;;;;;;33.10;56.80;;;;;;4996173;28;19921;-81
2023/07/10 12:11:45;;;;;;;;;;;32.80;57.70;;;;;;5003398;28;19920;-80
2023/07/10 12:14:12;;;;;;;;;;;33.00;59.80;;;;;;5004378;28;19920;-81
2023/07/10 12:16:41;;;;;;;;;;;32.50;60.00;;;;;;5003162;28;20803;-81
2023/07/10 12:19:14;;;;;;;;;;;32.70;61.40;;;;;;5003737;28;19949;-80
2023/07/10 12:21:40;;;;;;;;;;;32.80;60.00;;;;;;4997710;28;19917;-81
2023/07/10 12:24:11;;;;;;;;;;;32.60;57.40;;;;;;5002114;28;19914;-80
2023/07/10 12:26:37;;;;;;;;;;;32.40;57.60;;;;;;5003764;28;19959;-80
2023/07/10 12:29:03;;;;;;;;;;;32.40;54.90;;;;;;5001852;28;19913;-79
2023/07/10 12:31:28;;;;;;;;;;;32.40;58.10;;;;;;5002089;28;20301;-82
2023/07/10 12:33:54;;;;;;;;;;;32.10;56.50;;;;;;5000429;28;20012;-79
2023/07/10 12:36:19;;;;;;;;;;;32.10;58.80;;;;;;5018675;28;19974;-80
2023/07/10 12:38:45;;;;;;;;;;;32.50;60.70;;;;;;5002974;28;19921;-80
2023/07/10 12:41:10;;;;;;;;;;;32.40;62.60;;;;;;4996479;28;19917;-81
2023/07/10 12:43:36;;;;;;;;;;;32.20;61.90;;;;;;5003224;28;19918;-80
2023/07/10 12:46:11;;;;;;;;;;;32.20;62.20;;;;;;5001680;28;19917;-81
2023/07/10 12:48:38;;;;;;;;;;;32.00;61.10;;;;;;5003705;28;20020;-79
2023/07/10 12:51:05;;;;;;;;;;;32.10;60.00;;;;;;5002124;28;19932;-79
2023/07/10 12:53:34;;;;;;;;;;;32.00;56.70;;;;;;5001786;28;19913;-81
2023/07/10 12:56:12;;;;;;;;;;;31.60;56.70;;;;;;5003658;28;19918;-81
2023/07/10 12:58:37;;;;;;;;;;;31.80;61.20;;;;;;5000598;28;19917;-80
2023/07/10 13:01:20;;;;;;;;;;;31.60;62.20;;;;;;4998545;28;20096;-81
2023/07/10 13:03:58;;;;;;;;;;;31.60;62.30;;;;;;5002975;28;19918;-80
2023/07/10 13:06:23;;;;;;;;;;;31.80;61.60;;;;;;4999060;28;20305;-80
2023/07/10 13:08:49;;;;;;;;;;;31.80;59.60;;;;;;5004024;28;20389;-80
2023/07/10 13:11:21;;;;;;;;;;;31.70;59.70;;;;;;5018528;28;20522;-79
2023/07/10 13:13:47;;;;;;;;;;;31.60;61.80;;;;;;5002962;28;20396;-81
2023/07/10 13:16:21;;;;;;;;;;;31.40;60.00;;;;;;5003119;28;19956;-80
2023/07/10 13:18:46;;;;;;;;;;;31.30;65.70;;;;;;5015301;28;19917;-81
2023/07/10 13:21:14;;;;;;;;;;;31.20;61.80;;;;;;5018816;28;19914;-81
2023/07/10 13:23:39;;;;;;;;;;;31.30;60.20;;;;;;5001526;28;19918;-80
2023/07/10 13:26:18;;;;;;;;;;;31.50;60.20;;;;;;5015625;28;20403;-80
2023/07/10 13:28:44;;;;;;;;;;;31.50;58.30;;;;;;5000821;28;19924;-81
2023/07/10 13:31:10;;;;;;;;;;;31.40;63.30;;;;;;5011643;28;19917;-80
2023/07/10 13:33:35;;;;;;;;;;;31.50;65.00;;;;;;5009301;28;19921;-81
2023/07/10 13:36:01;;;;;;;;;;;31.10;64.30;;;;;;5002456;28;19921;-81
2023/07/10 13:38:27;;;;;;;;;;;31.20;64.80;;;;;;4997970;28;20032;-81
2023/07/10 13:40:52;;;;;;;;;;;31.20;58.30;;;;;;4994922;28;20398;-82
2023/07/10 13:43:20;;;;;;;;;;;31.20;61.60;;;;;;5000500;28;19949;-82
2023/07/10 13:45:51;;;;;;;;;;;31.20;62.80;;;;;;4993568;28;19917;-80
2023/07/10 13:48:16;;;;;;;;;;;31.10;60.50;;;;;;5001564;28;19921;-82
2023/07/10 13:50:45;;;;;;;;;;;31.00;63.30;;;;;;5011419;28;19925;-82
2023/07/10 13:53:16;;;;;;;;;;;30.90;65.50;;;;;;5020675;28;19917;-80
2023/07/10 13:55:41;;;;;;;;;;;30.90;62.10;;;;;;5021932;28;19920;-81
2023/07/10 13:58:18;;;;;;;;;;;30.90;60.90;;;;;;5020531;28;19917;-83
2023/07/10 14:00:44;;;;;;;;;;;30.80;59.10;;;;;;4997923;28;19913;-82
2023/07/10 14:03:10;;;;;;;;;;;30.90;59.60;;;;;;5016607;28;19917;-80
2023/07/10 14:05:36;;;;;;;;;;;30.80;59.40;;;;;;5018076;28;20008;-81
2023/07/10 14:08:04;;;;;;;;;;;30.70;57.90;;;;;;5020030;28;20019;-81
2023/07/10 14:10:30;;;;;;;;;;;30.70;58.50;;;;;;5022484;28;19924;-80
2023/07/10 14:12:55;;;;;;;;;;;30.80;58.70;;;;;;5020807;28;19913;-81
2023/07/10 14:15:21;;;;;;;;;;;30.80;63.60;;;;;;5021664;28;19920;-80
2023/07/10 14:17:47;;;;;;;;;;;30.80;62.70;;;;;;5019358;28;19968;-80
2023/07/10 14:20:20;;;;;;;;;;;30.60;57.80;;;;;;5021288;28;20014;-82